createdAt,value
2023-01-13T00:00:59.329Z,0.20
2023-01-13T00:03:26.539Z,0.20
2023-01-13T00:05:53.631Z,0.20
2023-01-13T00:08:20.772Z,0.30
2023-01-13T00:10:48.407Z,0.20
2023-01-13T00:13:15.827Z,0.20
2023-01-13T00:15:43.054Z,0.20
2023-01-13T00:18:10.281Z,0.20
2023-01-13T00:20:37.413Z,0.30
2023-01-13T00:23:04.583Z,0.10
2023-01-13T00:25:31.689Z,0.20
2023-01-13T00:27:58.840Z,0.17
2023-01-13T00:30:25.916Z,0.30
2023-01-13T00:32:53.419Z,0.20
2023-01-13T00:35:20.515Z,0.10
2023-01-13T00:37:47.647Z,0.10
2023-01-13T00:40:14.936Z,0.10
2023-01-13T00:43:00.725Z,0.20
2023-01-13T00:45:27.835Z,0.10
2023-01-13T00:47:54.943Z,0.10
2023-01-13T00:50:22.120Z,0.20
2023-01-13T00:52:49.206Z,0.10
2023-01-13T00:55:16.324Z,0.20
2023-01-13T00:57:43.481Z,0.30
2023-01-13T01:00:10.930Z,0.30
2023-01-13T01:02:38.112Z,0.30
2023-01-13T01:05:05.423Z,0.20
2023-01-13T01:07:32.514Z,0.30
2023-01-13T01:09:59.637Z,0.30
2023-01-13T01:12:26.761Z,0.40
2023-01-13T01:14:53.991Z,0.30
2023-01-13T01:17:21.111Z,0.47
2023-01-13T01:19:48.286Z,0.20
2023-01-13T01:22:15.370Z,0.20
2023-01-13T01:24:42.466Z,0.23
2023-01-13T01:27:09.573Z,0.30
2023-01-13T01:29:36.696Z,0.20
2023-01-13T01:32:03.815Z,0.20
2023-01-13T01:34:30.989Z,0.40
2023-01-13T01:36:58.118Z,0.20
2023-01-13T01:39:25.268Z,0.20
2023-01-13T01:42:12.656Z,0.33
2023-01-13T01:44:42.568Z,0.30
2023-01-13T01:47:14.338Z,0.20
2023-01-13T01:49:41.953Z,0.20
2023-01-13T01:52:14.022Z,0.20
2023-01-13T01:54:41.089Z,0.10
2023-01-13T01:57:09.751Z,0.10
2023-01-13T01:59:36.943Z,0.10
2023-01-13T02:02:04.215Z,0.20
2023-01-13T02:04:32.557Z,0.20
2023-01-13T02:06:59.690Z,0.20
2023-01-13T02:09:27.473Z,0.30
2023-01-13T02:12:13.258Z,0.20
2023-01-13T02:14:41.854Z,0.30
2023-01-13T02:17:12.066Z,0.20
2023-01-13T02:19:48.178Z,0.13
2023-01-13T02:22:15.307Z,0.20
2023-01-13T02:24:57.852Z,0.10
2023-01-13T02:27:25.077Z,0.10
2023-01-13T02:30:11.025Z,0.10
2023-01-13T02:32:48.058Z,0.10
2023-01-13T02:35:41.276Z,0.13
2023-01-13T02:38:10.554Z,0.20
2023-01-13T02:40:37.682Z,0.10
2023-01-13T02:43:23.628Z,0.23
2023-01-13T02:45:56.555Z,0.30
2023-01-13T02:48:24.676Z,0.10
2023-01-13T02:50:55.799Z,0.20
2023-01-13T02:53:27.259Z,0.10
2023-01-13T02:55:54.993Z,0.10
2023-01-13T02:58:24.915Z,0.30
2023-01-13T03:00:52.288Z,0.20
2023-01-13T03:03:19.491Z,0.10
2023-01-13T03:05:47.670Z,0.20
2023-01-13T03:08:24.859Z,0.20
2023-01-13T03:11:00.925Z,0.20
2023-01-13T03:13:37.468Z,0.30
2023-01-13T03:16:13.647Z,0.30
2023-01-13T03:18:55.874Z,0.20
2023-01-13T03:21:22.917Z,0.30
2023-01-13T03:23:58.208Z,0.10
2023-01-13T03:26:37.975Z,0.23
2023-01-13T03:29:34.670Z,0.20
2023-01-13T03:32:08.004Z,0.20
2023-01-13T03:34:37.178Z,0.20
2023-01-13T03:37:06.193Z,0.20
2023-01-13T03:39:35.008Z,0.10
2023-01-13T03:42:08.656Z,0.30
2023-01-13T03:44:45.046Z,0.60
2023-01-13T03:47:18.074Z,0.50
2023-01-13T03:49:47.904Z,0.43
2023-01-13T03:52:19.249Z,0.30
2023-01-13T03:54:50.113Z,0.47
2023-01-13T03:57:18.874Z,0.30
2023-01-13T03:59:47.814Z,0.40
2023-01-13T04:02:22.241Z,0.20
2023-01-13T04:04:56.974Z,0.10
2023-01-13T04:07:42.633Z,0.10
2023-01-13T04:10:10.899Z,0.20
2023-01-13T04:13:02.936Z,0.10
2023-01-13T04:15:34.686Z,0.10
2023-01-13T04:18:12.422Z,0.10
2023-01-13T04:20:39.932Z,0.20
2023-01-13T04:23:07.451Z,0.13
2023-01-13T04:25:34.665Z,0.10
2023-01-13T04:28:01.803Z,0.10
2023-01-13T04:30:29.055Z,0.20
2023-01-13T04:32:56.104Z,0.10
2023-01-13T04:35:23.183Z,0.10
2023-01-13T04:37:50.226Z,0.07
2023-01-13T04:40:17.420Z,0.10
2023-01-13T04:42:45.327Z,0.10
2023-01-13T04:45:12.651Z,0.10
2023-01-13T04:47:41.555Z,0.10
2023-01-13T04:50:09.068Z,0.10
2023-01-13T04:52:36.111Z,0.00
2023-01-13T04:55:03.203Z,0.10
2023-01-13T04:57:30.343Z,0.10
2023-01-13T04:59:57.428Z,0.10
2023-01-13T05:02:24.481Z,0.10
2023-01-13T05:04:51.590Z,0.07
2023-01-13T05:07:18.748Z,0.20
2023-01-13T05:09:45.809Z,0.20
2023-01-13T05:12:32.207Z,0.20
2023-01-13T05:15:17.993Z,0.10
2023-01-13T05:17:45.233Z,0.10
2023-01-13T05:20:12.626Z,0.10
2023-01-13T05:22:58.046Z,0.10
2023-01-13T05:25:25.565Z,0.10
2023-01-13T05:27:53.935Z,0.17
2023-01-13T05:30:22.137Z,0.10
2023-01-13T05:32:49.232Z,0.10
2023-01-13T05:35:16.754Z,0.10
2023-01-13T05:37:45.075Z,0.20
2023-01-13T05:40:31.857Z,0.10
2023-01-13T05:43:21.051Z,0.10
2023-01-13T05:45:49.367Z,0.13
2023-01-13T05:48:16.891Z,0.10
2023-01-13T05:50:44.699Z,0.10
2023-01-13T05:53:11.807Z,0.00
2023-01-13T05:55:39.738Z,0.10
2023-01-13T05:58:07.400Z,0.10
2023-01-13T06:00:34.481Z,0.10
2023-01-13T06:03:02.029Z,0.10
2023-01-13T06:05:29.548Z,0.10
2023-01-13T06:07:57.786Z,0.10
2023-01-13T06:10:25.511Z,0.10
2023-01-13T06:12:52.805Z,0.00
2023-01-13T06:15:20.152Z,0.10
2023-01-13T06:17:47.235Z,0.00
2023-01-13T06:20:15.205Z,0.10
2023-01-13T06:22:43.916Z,0.20
2023-01-13T06:25:16.753Z,0.17
2023-01-13T06:27:43.970Z,0.00
2023-01-13T06:30:11.435Z,0.10
2023-01-13T06:32:41.003Z,0.10
2023-01-13T06:35:09.807Z,0.10
2023-01-13T06:37:37.557Z,0.10
2023-01-13T06:40:06.869Z,0.03
2023-01-13T06:42:53.933Z,0.10
2023-01-13T06:45:21.320Z,0.20
2023-01-13T06:47:48.476Z,0.10
2023-01-13T06:50:15.520Z,0.20
2023-01-13T06:52:43.274Z,0.20
2023-01-13T06:55:10.405Z,0.20
2023-01-13T06:57:47.319Z,0.20
2023-01-13T07:00:15.690Z,0.10
2023-01-13T07:02:43.121Z,0.30
2023-01-13T07:05:10.266Z,0.10
2023-01-13T07:07:37.355Z,0.10
2023-01-13T07:10:04.995Z,0.10
2023-01-13T07:12:52.003Z,0.20
2023-01-13T07:15:19.069Z,0.27
2023-01-13T07:17:46.109Z,0.10
2023-01-13T07:20:13.345Z,0.20
2023-01-13T07:22:40.429Z,0.20
2023-01-13T07:25:07.833Z,0.10
2023-01-13T07:27:35.868Z,0.10
2023-01-13T07:30:03.370Z,0.20
2023-01-13T07:32:32.187Z,0.20
2023-01-13T07:35:05.110Z,0.20
2023-01-13T07:37:35.922Z,0.07
2023-01-13T07:40:04.442Z,0.10
2023-01-13T07:42:50.111Z,0.10
2023-01-13T07:45:17.252Z,0.10
2023-01-13T07:47:44.285Z,0.10
2023-01-13T07:50:11.895Z,0.10
2023-01-13T07:52:38.954Z,0.13
2023-01-13T07:55:06.249Z,0.10
2023-01-13T07:57:33.305Z,0.10
2023-01-13T08:00:00.424Z,0.10
2023-01-13T08:02:27.716Z,0.30
2023-01-13T08:04:54.857Z,0.20
2023-01-13T08:07:21.974Z,0.17
2023-01-13T08:09:49.199Z,0.00
2023-01-13T08:12:35.023Z,0.10
2023-01-13T08:15:02.056Z,1.30
2023-01-13T08:17:29.296Z,3.40
2023-01-13T08:19:56.363Z,2.60
2023-01-13T08:22:23.745Z,14.47
2023-01-13T08:24:50.822Z,9.27
2023-01-13T08:27:20.136Z,1.57
2023-01-13T08:29:47.213Z,0.50
2023-01-13T08:32:14.381Z,0.17
2023-01-13T08:34:41.505Z,0.20
2023-01-13T08:37:09.183Z,0.20
2023-01-13T08:39:36.241Z,0.30
2023-01-13T08:42:04.228Z,0.20
2023-01-13T08:44:32.296Z,0.20
2023-01-13T08:46:59.873Z,0.20
2023-01-13T08:49:26.990Z,1.00
2023-01-13T08:51:54.417Z,0.10
2023-01-13T08:54:21.679Z,0.10
2023-01-13T08:56:48.809Z,0.20
2023-01-13T08:59:19.508Z,0.10
2023-01-13T09:01:47.022Z,0.10
2023-01-13T09:04:16.569Z,0.10
2023-01-13T09:06:43.701Z,0.20
2023-01-13T09:09:10.780Z,0.10
2023-01-13T09:11:58.811Z,0.03
2023-01-13T09:14:26.699Z,0.10
2023-01-13T09:16:53.791Z,0.10
2023-01-13T09:19:20.903Z,0.10
2023-01-13T09:21:48.196Z,0.10
2023-01-13T09:24:15.335Z,0.20
2023-01-13T09:26:42.429Z,0.10
2023-01-13T09:29:09.603Z,0.10
2023-01-13T09:31:36.685Z,0.10
2023-01-13T09:34:23.308Z,0.20
2023-01-13T09:36:50.596Z,0.23
2023-01-13T09:39:18.152Z,0.20
2023-01-13T09:42:05.874Z,0.30
2023-01-13T09:44:45.884Z,0.30
2023-01-13T09:47:18.043Z,0.30
2023-01-13T09:49:45.236Z,0.40
2023-01-13T09:52:19.408Z,0.43
2023-01-13T09:54:49.194Z,0.40
2023-01-13T09:57:17.576Z,0.50
2023-01-13T09:59:45.189Z,0.40
2023-01-13T10:02:12.337Z,0.40
2023-01-13T10:04:39.408Z,0.50
2023-01-13T10:07:11.276Z,0.70
2023-01-13T10:09:52.051Z,0.50
2023-01-13T10:12:43.582Z,0.40
2023-01-13T10:15:17.870Z,0.70
2023-01-13T10:17:59.999Z,0.50
2023-01-13T10:20:30.455Z,0.43
2023-01-13T10:23:01.798Z,0.60
2023-01-13T10:25:36.146Z,0.60
2023-01-13T10:28:08.882Z,0.20
2023-01-13T10:30:39.883Z,0.30
2023-01-13T10:33:17.508Z,0.60
2023-01-13T10:35:56.756Z,0.40
2023-01-13T10:38:35.990Z,0.20
2023-01-13T10:41:04.651Z,0.10
2023-01-13T10:43:32.184Z,0.20
2023-01-13T10:46:06.726Z,0.10
2023-01-13T10:48:33.804Z,0.10
2023-01-13T10:51:11.100Z,0.40
2023-01-13T10:53:45.566Z,0.20
2023-01-13T10:56:16.873Z,0.10
2023-01-13T10:58:43.937Z,0.10
2023-01-13T11:01:19.369Z,0.20
2023-01-13T11:03:48.295Z,0.10
2023-01-13T11:06:23.249Z,0.40
2023-01-13T11:08:51.319Z,0.20
2023-01-13T11:11:34.745Z,0.30
2023-01-13T11:14:22.239Z,0.10
2023-01-13T11:16:53.683Z,0.30
2023-01-13T11:19:23.255Z,0.10
2023-01-13T11:21:53.854Z,0.20
2023-01-13T11:24:24.337Z,0.20
2023-01-13T11:26:57.441Z,0.20
2023-01-13T11:29:32.670Z,0.30
2023-01-13T11:32:25.930Z,0.23
2023-01-13T11:34:57.794Z,0.30
2023-01-13T11:37:36.890Z,0.30
2023-01-13T11:40:06.074Z,0.20
2023-01-13T11:42:34.788Z,0.20
2023-01-13T11:45:06.468Z,0.20
2023-01-13T11:47:34.911Z,0.30
2023-01-13T11:50:02.785Z,0.10
2023-01-13T11:52:29.828Z,0.20
2023-01-13T11:55:03.040Z,0.27
2023-01-13T11:57:32.946Z,0.40
2023-01-13T12:00:35.337Z,0.20
2023-01-13T12:03:21.105Z,0.10
2023-01-13T12:06:03.460Z,0.70
2023-01-13T12:08:34.409Z,0.17
2023-01-13T12:11:04.404Z,0.67
2023-01-13T12:13:37.352Z,0.20
2023-01-13T12:16:13.918Z,0.20
2023-01-13T12:18:43.866Z,0.13
2023-01-13T12:21:18.979Z,0.20
2023-01-13T12:23:46.029Z,0.20
2023-01-13T12:26:14.230Z,0.30
2023-01-13T12:28:47.421Z,0.40
2023-01-13T12:31:14.955Z,0.60
2023-01-13T12:33:48.946Z,0.30
2023-01-13T12:36:25.714Z,0.50
2023-01-13T12:39:03.178Z,0.10
2023-01-13T12:41:36.867Z,0.20
2023-01-13T12:44:16.897Z,0.20
2023-01-13T12:46:53.207Z,0.30
2023-01-13T12:49:25.026Z,0.30
2023-01-13T12:51:55.176Z,0.17
2023-01-13T12:54:31.171Z,0.13
2023-01-13T12:56:58.944Z,0.17
2023-01-13T12:59:25.978Z,0.20
2023-01-13T13:02:15.656Z,0.37
2023-01-13T13:04:46.698Z,0.30
2023-01-13T13:07:16.048Z,0.40
2023-01-13T13:09:50.132Z,0.43
2023-01-13T13:12:58.879Z,0.50
2023-01-13T13:15:26.944Z,0.40
2023-01-13T13:18:00.209Z,0.40
2023-01-13T13:20:45.902Z,0.60
2023-01-13T13:23:29.907Z,0.40
2023-01-13T13:26:02.410Z,0.30
2023-01-13T13:28:33.173Z,0.30
2023-01-13T13:31:11.161Z,0.30
2023-01-13T13:33:58.499Z,0.30
2023-01-13T13:36:40.985Z,0.30
2023-01-13T13:39:34.845Z,0.27
2023-01-13T13:42:24.867Z,0.23
2023-01-13T13:45:10.918Z,0.20
2023-01-13T13:47:38.600Z,0.30
2023-01-13T13:50:07.325Z,0.23
2023-01-13T13:52:38.943Z,0.50
2023-01-13T13:55:15.067Z,0.80
2023-01-13T13:57:45.439Z,0.37
2023-01-13T14:00:15.675Z,0.33
2023-01-13T14:02:47.753Z,1.23
2023-01-13T14:05:17.655Z,0.90
2023-01-13T14:07:46.099Z,0.43
2023-01-13T14:10:17.295Z,0.60
2023-01-13T14:12:44.396Z,0.30
2023-01-13T14:15:43.843Z,0.50
2023-01-13T14:18:21.629Z,0.30
2023-01-13T14:20:56.422Z,0.50
2023-01-13T14:23:26.464Z,0.47
2023-01-13T14:25:53.935Z,0.60
2023-01-13T14:28:27.132Z,0.50
2023-01-13T14:30:54.596Z,1.73
2023-01-13T14:33:23.582Z,1.07
2023-01-13T14:36:09.623Z,1.10
2023-01-13T14:38:36.765Z,0.40
2023-01-13T14:41:11.110Z,0.50
2023-01-13T14:43:42.887Z,0.70
2023-01-13T14:46:09.999Z,0.70
2023-01-13T14:48:37.402Z,0.43
2023-01-13T14:51:06.097Z,0.20
2023-01-13T14:53:39.586Z,0.60
2023-01-13T14:56:27.891Z,1.20
2023-01-13T14:58:56.155Z,0.50
2023-01-13T15:01:27.914Z,0.40
2023-01-13T15:03:55.300Z,0.47
2023-01-13T15:06:24.111Z,0.30
2023-01-13T15:08:52.365Z,0.40
2023-01-13T15:11:24.820Z,0.40
2023-01-13T15:13:57.807Z,0.40
2023-01-13T15:16:26.285Z,0.50
2023-01-13T15:18:54.243Z,0.50
2023-01-13T15:21:21.799Z,0.40
2023-01-13T15:23:48.921Z,0.33
2023-01-13T15:26:15.958Z,0.40
2023-01-13T15:28:43.041Z,0.30
2023-01-13T15:31:10.256Z,0.20
2023-01-13T15:33:37.362Z,0.30
2023-01-13T15:36:04.648Z,0.70
2023-01-13T15:38:31.702Z,0.80
2023-01-13T15:40:58.894Z,1.10
2023-01-13T15:43:44.747Z,1.10
2023-01-13T15:46:38.728Z,0.70
2023-01-13T15:49:12.614Z,0.43
2023-01-13T15:51:40.228Z,0.47
2023-01-13T15:54:08.193Z,0.60
2023-01-13T15:56:36.965Z,0.90
2023-01-13T15:59:04.979Z,0.40
2023-01-13T16:01:32.173Z,1.00
2023-01-13T16:03:59.318Z,0.60
2023-01-13T16:06:36.071Z,0.67
2023-01-13T16:09:03.788Z,0.30
2023-01-13T16:11:31.194Z,0.33
2023-01-13T16:13:58.360Z,0.40
2023-01-13T16:16:26.529Z,0.30
2023-01-13T16:18:54.151Z,0.60
2023-01-13T16:21:21.800Z,0.73
2023-01-13T16:23:49.892Z,0.60
2023-01-13T16:26:25.293Z,0.40
2023-01-13T16:28:53.233Z,0.57
2023-01-13T16:31:24.985Z,1.53
2023-01-13T16:33:52.412Z,2.50
2023-01-13T16:36:20.563Z,3.63
2023-01-13T16:38:48.117Z,2.10
2023-01-13T16:41:15.635Z,1.90
2023-01-13T16:43:42.815Z,1.30
2023-01-13T16:46:29.997Z,1.40
2023-01-13T16:48:58.153Z,1.00
2023-01-13T16:51:25.416Z,1.63
2023-01-13T16:53:52.896Z,1.80
2023-01-13T16:56:24.668Z,2.00
2023-01-13T16:58:55.873Z,2.17
2023-01-13T17:01:30.758Z,1.93
2023-01-13T17:03:59.060Z,1.70
2023-01-13T17:06:40.599Z,2.20
2023-01-13T17:09:09.188Z,2.73
2023-01-13T17:11:36.266Z,1.90
2023-01-13T17:14:18.091Z,1.90
2023-01-13T17:16:46.265Z,1.20
2023-01-13T17:19:13.768Z,1.43
2023-01-13T17:21:40.942Z,1.60
2023-01-13T17:24:09.503Z,1.63
2023-01-13T17:26:42.104Z,1.30
2023-01-13T17:29:12.420Z,1.20
2023-01-13T17:31:39.702Z,1.00
2023-01-13T17:34:06.785Z,1.07
2023-01-13T17:36:33.927Z,1.30
2023-01-13T17:39:00.995Z,1.00
2023-01-13T17:41:28.167Z,1.00
2023-01-13T17:43:55.468Z,0.70
2023-01-13T17:46:23.179Z,0.80
2023-01-13T17:48:51.164Z,0.83
2023-01-13T17:51:19.344Z,0.93
2023-01-13T17:53:46.574Z,0.80
2023-01-13T17:56:14.534Z,0.70
2023-01-13T17:58:41.981Z,0.60
2023-01-13T18:01:09.235Z,0.80
2023-01-13T18:03:36.655Z,1.00
2023-01-13T18:06:04.849Z,0.80
2023-01-13T18:08:31.967Z,1.13
2023-01-13T18:11:00.565Z,0.90
2023-01-13T18:13:28.203Z,3.33
2023-01-13T18:16:04.991Z,0.90
2023-01-13T18:18:32.264Z,1.10
2023-01-13T18:21:18.099Z,0.90
2023-01-13T18:24:14.351Z,0.90
2023-01-13T18:27:00.358Z,0.90
2023-01-13T18:29:27.428Z,1.10
2023-01-13T18:31:54.518Z,0.90
2023-01-13T18:34:21.699Z,1.20
2023-01-13T18:36:48.794Z,1.10
2023-01-13T18:39:16.059Z,1.10
2023-01-13T18:42:01.720Z,1.10
2023-01-13T18:44:29.013Z,1.07
2023-01-13T18:46:56.067Z,0.90
2023-01-13T18:49:23.208Z,0.80
2023-01-13T18:51:50.602Z,1.30
2023-01-13T18:54:19.010Z,0.97
2023-01-13T18:56:46.865Z,0.83
2023-01-13T18:59:14.103Z,0.77
2023-01-13T19:01:41.330Z,0.83
2023-01-13T19:04:15.285Z,0.90
2023-01-13T19:06:51.488Z,0.90
2023-01-13T19:09:19.601Z,1.10
2023-01-13T19:11:46.895Z,0.70
2023-01-13T19:14:34.071Z,0.60
2023-01-13T19:17:01.237Z,0.60
2023-01-13T19:19:28.477Z,0.40
2023-01-13T19:21:56.349Z,0.70
2023-01-13T19:24:25.902Z,1.00
2023-01-13T19:26:53.499Z,1.00
2023-01-13T19:29:21.011Z,1.40
2023-01-13T19:31:48.680Z,0.63
2023-01-13T19:34:15.736Z,0.70
2023-01-13T19:36:43.021Z,0.80
2023-01-13T19:39:10.232Z,0.60
2023-01-13T19:41:56.412Z,0.70
2023-01-13T19:44:42.346Z,0.70
2023-01-13T19:47:09.511Z,0.83
2023-01-13T19:49:36.606Z,0.80
2023-01-13T19:52:03.772Z,1.00
2023-01-13T19:54:31.054Z,0.87
2023-01-13T19:56:58.422Z,0.83
2023-01-13T19:59:29.160Z,0.80
2023-01-13T20:02:00.798Z,0.70
2023-01-13T20:04:38.394Z,0.70
2023-01-13T20:07:08.664Z,0.70
2023-01-13T20:09:35.813Z,0.60
2023-01-13T20:12:11.530Z,0.87
2023-01-13T20:14:38.738Z,0.67
2023-01-13T20:17:06.008Z,0.70
2023-01-13T20:19:33.340Z,0.60
2023-01-13T20:22:00.505Z,0.70
2023-01-13T20:24:27.634Z,0.60
2023-01-13T20:26:55.345Z,0.50
2023-01-13T20:29:22.935Z,0.40
2023-01-13T20:31:51.259Z,0.53
2023-01-13T20:34:19.126Z,0.83
2023-01-13T20:36:46.898Z,0.67
2023-01-13T20:39:27.283Z,0.70
2023-01-13T20:42:13.457Z,0.60
2023-01-13T20:44:40.758Z,0.73
2023-01-13T20:47:08.286Z,0.70
2023-01-13T20:49:38.748Z,0.87
2023-01-13T20:52:09.619Z,0.83
2023-01-13T20:54:40.679Z,1.00
2023-01-13T20:57:09.639Z,0.70
2023-01-13T20:59:37.528Z,0.90
2023-01-13T21:02:05.268Z,0.77
2023-01-13T21:04:32.344Z,0.70
2023-01-13T21:06:59.457Z,0.70
2023-01-13T21:09:27.282Z,0.53
2023-01-13T21:12:14.758Z,1.93
2023-01-13T21:15:00.697Z,1.00
2023-01-13T21:17:46.711Z,0.73
2023-01-13T21:20:14.666Z,0.40
2023-01-13T21:22:46.164Z,0.70
2023-01-13T21:25:13.313Z,0.80
2023-01-13T21:27:40.707Z,0.60
2023-01-13T21:30:08.640Z,0.70
2023-01-13T21:32:35.737Z,0.80
2023-01-13T21:35:02.808Z,0.60
2023-01-13T21:37:29.892Z,0.73
2023-01-13T21:39:56.985Z,0.70
2023-01-13T21:42:43.118Z,0.50
2023-01-13T21:45:29.624Z,0.70
2023-01-13T21:47:57.196Z,0.80
2023-01-13T21:50:26.596Z,0.80
2023-01-13T21:52:53.783Z,1.00
2023-01-13T21:55:25.372Z,1.60
2023-01-13T21:57:58.534Z,1.07
2023-01-13T22:00:27.744Z,1.20
2023-01-13T22:02:55.437Z,1.30
2023-01-13T22:05:23.725Z,0.93
2023-01-13T22:07:51.243Z,1.27
2023-01-13T22:10:25.830Z,1.20
2023-01-13T22:12:57.157Z,0.77
2023-01-13T22:15:29.211Z,1.07
2023-01-13T22:17:56.699Z,0.80
2023-01-13T22:20:23.909Z,0.90
2023-01-13T22:22:51.039Z,0.70
2023-01-13T22:25:20.266Z,0.77
2023-01-13T22:27:48.352Z,0.80
2023-01-13T22:30:15.788Z,0.70
2023-01-13T22:32:42.988Z,0.60
2023-01-13T22:35:11.044Z,0.90
2023-01-13T22:37:38.242Z,0.50
2023-01-13T22:40:06.269Z,0.90
2023-01-13T22:42:33.324Z,0.50
2023-01-13T22:45:00.422Z,0.50
2023-01-13T22:47:31.175Z,0.70
2023-01-13T22:49:58.223Z,0.70
2023-01-13T22:52:27.147Z,0.70
2023-01-13T22:54:54.174Z,0.80
2023-01-13T22:57:21.880Z,0.63
2023-01-13T22:59:50.824Z,0.60
2023-01-13T23:02:17.937Z,0.60
2023-01-13T23:04:45.085Z,0.70
2023-01-13T23:07:12.197Z,0.67
2023-01-13T23:09:39.254Z,0.63
2023-01-13T23:12:06.704Z,0.57
2023-01-13T23:14:33.912Z,0.60
2023-01-13T23:17:01.129Z,0.50
2023-01-13T23:19:28.247Z,0.50
2023-01-13T23:21:55.329Z,0.57
2023-01-13T23:24:25.839Z,0.60
2023-01-13T23:26:53.061Z,0.43
2023-01-13T23:29:20.281Z,0.40
2023-01-13T23:31:47.704Z,0.60
2023-01-13T23:34:14.770Z,0.53
2023-01-13T23:36:43.292Z,0.47
2023-01-13T23:39:10.434Z,0.50
2023-01-13T23:41:37.543Z,0.50
2023-01-13T23:44:04.623Z,0.60
2023-01-13T23:46:33.854Z,0.60
2023-01-13T23:49:01.749Z,0.60
2023-01-13T23:51:30.065Z,0.40
2023-01-13T23:53:57.454Z,0.60
2023-01-13T23:56:25.391Z,0.70
2023-01-13T23:58:52.766Z,0.60
